Time;durP1;ratioP1;P1;durP2;ratioP2;P2;SDS_P1;SDS_P2;PMS_P1;PMS_P2;Temp;Humidity;BMP_temperature;BMP_pressure;BME280_temperature;BME280_humidity;BME280_pressure;Samples;Min_cycle;Max_cycle;Signal;HPM_P1;HPM_P2
2022/05/10 00:01:23;;;;;;;6.40;2.92;;;;;;;;;;5021986;28;20033;-78
2022/05/10 00:03:48;;;;;;;5.95;2.70;;;;;;;;;;5018797;28;20483;-78
2022/05/10 00:06:14;;;;;;;7.05;2.85;;;;;;;;;;5019858;28;20032;-79
2022/05/10 00:08:40;;;;;;;8.75;3.15;;;;;;;;;;5021340;28;20030;-79
2022/05/10 00:11:05;;;;;;;6.60;2.92;;;;;;;;;;5018043;28;20522;-77
2022/05/10 00:13:31;;;;;;;6.03;3.00;;;;;;;;;;5020531;28;20026;-79
2022/05/10 00:15:56;;;;;;;5.50;2.63;;;;;;;;;;5018444;28;20026;-79
2022/05/10 00:18:24;;;;;;;4.78;2.95;;;;;;;;;;5020773;28;20063;-78
2022/05/10 00:20:49;;;;;;;7.22;2.85;;;;;;;;;;5020602;28;20018;-79
2022/05/10 00:23:14;;;;;;;5.80;2.88;;;;;;;;;;5018112;28;20025;-78
2022/05/10 00:25:41;;;;;;;7.65;2.85;;;;;;;;;;5017184;28;20070;-79
2022/05/10 00:28:07;;;;;;;10.15;2.78;;;;;;;;;;5017096;28;20036;-78
2022/05/10 00:30:32;;;;;;;9.20;2.88;;;;;;;;;;5018330;28;20026;-79
2022/05/10 00:32:57;;;;;;;5.25;2.88;;;;;;;;;;5018999;28;20070;-79
2022/05/10 00:35:25;;;;;;;6.22;3.10;;;;;;;;;;5022464;28;20026;-79
2022/05/10 00:37:54;;;;;;;5.30;2.78;;;;;;;;;;5022337;28;20040;-79
2022/05/10 00:40:27;;;;;;;7.70;3.00;;;;;;;;;;5021404;28;20025;-79
2022/05/10 00:42:57;;;;;;;;;;;;;;;;;;5021818;28;20038;-79
2022/05/10 00:45:40;;;;;;;5.97;2.88;;;;;;;;;;5022331;28;20313;-79
2022/05/10 00:48:15;;;;;;;6.40;2.87;;;;;;;;;;5016741;28;20049;-77
2022/05/10 00:50:46;;;;;;;9.70;3.35;;;;;;;;;;5021546;28;20026;-78
2022/05/10 00:53:23;;;;;;;7.25;3.05;;;;;;;;;;5019986;28;20021;-78
2022/05/10 00:56:13;;;;;;;12.70;3.08;;;;;;;;;;5018950;28;20040;-78
2022/05/10 00:58:51;;;;;;;6.13;2.95;;;;;;;;;;5022679;28;20026;-78
2022/05/10 01:01:23;;;;;;;4.95;3.10;;;;;;;;;;5023635;28;20049;-79
2022/05/10 01:04:09;;;;;;;4.97;2.95;;;;;;;;;;5020478;28;20491;-77
2022/05/10 01:06:49;;;;;;;8.23;2.97;;;;;;;;;;5020770;28;20073;-79
2022/05/10 01:09:26;;;;;;;6.47;2.92;;;;;;;;;;5023251;28;20021;-79
2022/05/10 01:11:59;;;;;;;8.50;2.80;;;;;;;;;;5018394;28;20022;-77
2022/05/10 01:14:47;;;;;;;7.15;2.97;;;;;;;;;;5018947;28;20026;-79
2022/05/10 01:17:12;;;;;;;5.25;2.78;;;;;;;;;;5020558;28;20052;-78
2022/05/10 01:19:39;;;;;;;10.98;3.30;;;;;;;;;;5022065;28;20559;-78
2022/05/10 01:22:34;;;;;;;7.07;3.22;;;;;;;;;;5023856;28;20030;-79
2022/05/10 01:25:19;;;;;;;8.25;3.20;;;;;;;;;;5026738;28;20057;-78
2022/05/10 01:28:03;;;;;;;;;;;;;;;;;;5023339;28;20037;-78
2022/05/10 01:30:30;;;;;;;5.63;2.83;;;;;;;;;;5018825;28;19909;-79
2022/05/10 01:36:10;;;;;;;5.60;3.17;;;;;;;;;;5020791;28;20037;-79
2022/05/10 01:38:55;;;;;;;5.07;3.00;;;;;;;;;;5022073;28;20033;-78
2022/05/10 01:41:33;;;;;;;5.90;3.20;;;;;;;;;;5022189;28;20030;-78
2022/05/10 01:44:14;;;;;;;6.70;3.45;;;;;;;;;;5023341;28;20117;-79
2022/05/10 01:46:39;;;;;;;5.43;2.97;;;;;;;;;;5022854;28;20037;-79
2022/05/10 01:49:17;;;;;;;8.50;3.27;;;;;;;;;;5022101;28;20442;-78
2022/05/10 01:51:59;;;;;;;4.65;2.78;;;;;;;;;;5021890;28;20289;-79
2022/05/10 01:54:39;;;;;;;9.38;2.92;;;;;;;;;;5020050;28;20057;-78
2022/05/10 01:57:09;;;;;;;8.15;3.30;;;;;;;;;;5020224;28;20068;-79
2022/05/10 01:59:34;;;;;;;7.20;2.92;;;;;;;;;;5021518;28;20044;-78
2022/05/10 02:02:01;;;;;;;6.57;2.90;;;;;;;;;;5024474;28;20029;-80
2022/05/10 02:04:32;;;;;;;5.95;3.08;;;;;;;;;;5021084;28;20372;-78
2022/05/10 02:07:03;;;;;;;5.15;3.47;;;;;;;;;;5019738;28;20018;-78
2022/05/10 02:09:35;;;;;;;7.47;3.22;;;;;;;;;;5020703;28;20033;-79
2022/05/10 02:12:10;;;;;;;7.88;3.40;;;;;;;;;;5023355;28;20502;-78
2022/05/10 02:14:43;;;;;;;8.65;3.15;;;;;;;;;;5022706;28;20026;-79
2022/05/10 02:17:25;;;;;;;6.27;3.30;;;;;;;;;;5018726;28;20026;-79
2022/05/10 02:20:01;;;;;;;7.03;3.30;;;;;;;;;;5023202;28;20026;-78
2022/05/10 02:23:07;;;;;;;7.85;3.40;;;;;;;;;;5022763;28;20032;-79
2022/05/10 02:25:37;;;;;;;8.73;3.20;;;;;;;;;;5009090;28;20040;-79
2022/05/10 02:28:10;;;;;;;7.90;3.25;;;;;;;;;;5022123;28;20048;-79
2022/05/10 02:30:36;;;;;;;5.30;3.00;;;;;;;;;;5022231;28;20080;-79
2022/05/10 02:33:09;;;;;;;9.95;3.22;;;;;;;;;;5021121;28;20030;-78
2022/05/10 02:35:47;;;;;;;6.20;3.15;;;;;;;;;;5020537;28;20352;-78
2022/05/10 02:38:18;;;;;;;8.75;3.30;;;;;;;;;;5021295;28;20030;-78
2022/05/10 02:40:45;;;;;;;9.45;3.30;;;;;;;;;;5018504;28;20026;-78
2022/05/10 02:43:21;;;;;;;5.07;2.92;;;;;;;;;;5021203;28;20026;-78
2022/05/10 02:45:46;;;;;;;7.30;3.20;;;;;;;;;;5017983;28;20024;-79
2022/05/10 02:48:21;;;;;;;7.60;3.00;;;;;;;;;;5021233;28;20112;-79
2022/05/10 02:50:46;;;;;;;6.25;3.10;;;;;;;;;;5021476;28;20771;-78
2022/05/10 02:53:12;;;;;;;6.63;2.97;;;;;;;;;;5022280;28;20034;-79
2022/05/10 02:55:53;;;;;;;5.13;3.10;;;;;;;;;;5021359;28;20117;-78
2022/05/10 02:58:29;;;;;;;7.43;3.20;;;;;;;;;;5022307;28;20262;-79
2022/05/10 03:01:20;;;;;;;5.97;3.08;;;;;;;;;;5024895;28;20037;-78
2022/05/10 03:03:46;;;;;;;8.90;3.45;;;;;;;;;;5022566;28;20026;-79
2022/05/10 03:06:21;;;;;;;9.77;3.67;;;;;;;;;;5022502;28;20033;-78
2022/05/10 03:08:47;;;;;;;10.05;3.25;;;;;;;;;;5021992;28;20025;-78
2022/05/10 03:11:14;;;;;;;8.52;3.40;;;;;;;;;;5026643;28;20026;-79
2022/05/10 03:13:40;;;;;;;7.28;3.85;;;;;;;;;;5021591;28;20026;-79
2022/05/10 03:16:06;;;;;;;6.40;3.42;;;;;;;;;;5021065;28;20387;-79
2022/05/10 03:18:31;;;;;;;5.32;3.20;;;;;;;;;;5025341;28;20126;-79
2022/05/10 03:20:56;;;;;;;6.13;3.50;;;;;;;;;;5023995;28;20510;-79
2022/05/10 03:23:22;;;;;;;9.00;3.58;;;;;;;;;;5019660;28;20060;-78
2022/05/10 03:25:48;;;;;;;7.13;3.47;;;;;;;;;;5023563;28;20014;-78
2022/05/10 03:28:14;;;;;;;6.45;3.33;;;;;;;;;;5023009;28;20026;-79
2022/05/10 03:30:39;;;;;;;10.45;3.30;;;;;;;;;;5027745;28;20022;-79
2022/05/10 03:33:05;;;;;;;6.22;3.25;;;;;;;;;;5026151;28;20022;-79
2022/05/10 03:35:30;;;;;;;8.27;3.10;;;;;;;;;;5024048;28;20371;-78
2022/05/10 03:37:56;;;;;;;7.88;3.60;;;;;;;;;;5026357;28;20021;-79
2022/05/10 03:40:21;;;;;;;6.95;3.53;;;;;;;;;;5022137;28;20026;-80
2022/05/10 03:42:51;;;;;;;7.45;3.53;;;;;;;;;;5020567;28;20025;-78
2022/05/10 03:45:19;;;;;;;7.07;3.33;;;;;;;;;;5023103;28;20030;-79
2022/05/10 03:47:45;;;;;;;9.77;3.60;;;;;;;;;;5024404;28;20073;-79
2022/05/10 03:50:12;;;;;;;7.10;3.38;;;;;;;;;;5026064;28;20038;-78
2022/05/10 03:52:40;;;;;;;8.10;3.20;;;;;;;;;;5025969;28;20049;-79
2022/05/10 03:55:07;;;;;;;9.90;3.67;;;;;;;;;;5024151;28;20025;-78
2022/05/10 03:57:33;;;;;;;12.68;3.58;;;;;;;;;;5023913;28;20046;-79
2022/05/10 03:59:59;;;;;;;8.57;3.33;;;;;;;;;;5021472;28;20022;-79
2022/05/10 04:02:24;;;;;;;6.85;3.33;;;;;;;;;;5021927;28;20368;-78
2022/05/10 04:04:49;;;;;;;5.82;3.30;;;;;;;;;;5024154;28;20033;-78
2022/05/10 04:07:15;;;;;;;7.73;3.10;;;;;;;;;;5024673;28;20037;-79
2022/05/10 04:09:40;;;;;;;8.05;3.72;;;;;;;;;;5021577;28;20251;-79
2022/05/10 04:12:06;;;;;;;9.90;3.80;;;;;;;;;;5023477;28;20089;-77
2022/05/10 04:14:31;;;;;;;8.05;3.92;;;;;;;;;;5024206;28;20034;-79
2022/05/10 04:16:56;;;;;;;12.57;3.38;;;;;;;;;;5025427;28;20117;-79
2022/05/10 04:19:22;;;;;;;7.70;3.70;;;;;;;;;;5025125;28;20022;-79
2022/05/10 04:21:48;;;;;;;8.50;3.33;;;;;;;;;;5026324;28;20030;-79
2022/05/10 04:24:13;;;;;;;10.52;3.70;;;;;;;;;;5025340;28;20498;-78
2022/05/10 04:26:39;;;;;;;8.77;3.50;;;;;;;;;;5022308;28;20018;-81
2022/05/10 04:29:05;;;;;;;7.13;3.40;;;;;;;;;;5024707;28;20060;-79
2022/05/10 04:31:30;;;;;;;8.68;3.55;;;;;;;;;;5024973;28;20029;-79
2022/05/10 04:33:55;;;;;;;10.48;4.72;;;;;;;;;;5024590;28;20022;-78
2022/05/10 04:36:23;;;;;;;16.65;4.60;;;;;;;;;;5019070;28;20164;-77
2022/05/10 04:38:49;;;;;;;11.77;4.82;;;;;;;;;;5017943;28;20032;-78
2022/05/10 04:41:24;;;;;;;12.52;5.38;;;;;;;;;;5021066;28;20093;-79
2022/05/10 04:43:50;;;;;;;11.48;4.47;;;;;;;;;;5019396;28;20030;-78
2022/05/10 04:46:16;;;;;;;12.40;3.95;;;;;;;;;;5021099;28;20049;-79
2022/05/10 04:48:41;;;;;;;10.52;3.97;;;;;;;;;;5020866;28;20029;-79
2022/05/10 04:51:07;;;;;;;9.93;3.78;;;;;;;;;;5024219;28;20038;-79
2022/05/10 04:53:33;;;;;;;8.13;3.63;;;;;;;;;;5026284;28;20044;-78
2022/05/10 04:55:58;;;;;;;7.65;3.45;;;;;;;;;;5026008;28;20515;-79
2022/05/10 04:58:23;;;;;;;9.53;3.43;;;;;;;;;;5025669;28;20026;-79
2022/05/10 05:00:49;;;;;;;7.30;3.60;;;;;;;;;;5026371;28;20251;-78
2022/05/10 05:03:14;;;;;;;7.82;3.55;;;;;;;;;;5025547;28;20077;-80
2022/05/10 05:05:39;;;;;;;7.82;3.63;;;;;;;;;;5025782;28;20029;-79
2022/05/10 05:08:05;;;;;;;7.95;3.50;;;;;;;;;;5026540;28;20049;-78
2022/05/10 05:10:30;;;;;;;7.47;3.83;;;;;;;;;;5020519;28;20407;-79
2022/05/10 05:12:55;;;;;;;16.13;4.50;;;;;;;;;;5022802;28;20625;-79
2022/05/10 05:15:21;;;;;;;10.35;4.20;;;;;;;;;;5027399;28;20455;-79
2022/05/10 05:17:46;;;;;;;10.27;3.85;;;;;;;;;;5027471;28;20034;-79
2022/05/10 05:20:12;;;;;;;7.47;3.65;;;;;;;;;;5025528;28;20032;-78
2022/05/10 05:22:38;;;;;;;6.95;3.50;;;;;;;;;;5027152;28;20156;-79
2022/05/10 05:25:05;;;;;;;7.00;3.22;;;;;;;;;;5025625;28;20041;-78
2022/05/10 05:27:30;;;;;;;7.70;3.53;;;;;;;;;;5022811;28;20022;-78
2022/05/10 05:29:55;;;;;;;10.93;3.93;;;;;;;;;;5025839;28;20403;-80
2022/05/10 05:32:29;;;;;;;8.60;3.45;;;;;;;;;;5025862;28;20632;-78
2022/05/10 05:34:56;;;;;;;6.95;3.40;;;;;;;;;;5026389;28;20032;-78
2022/05/10 05:37:33;;;;;;;10.63;3.60;;;;;;;;;;5026671;28;20037;-78
2022/05/10 05:40:04;;;;;;;6.03;3.40;;;;;;;;;;5024378;28;20064;-79
2022/05/10 05:42:30;;;;;;;10.60;3.53;;;;;;;;;;5025039;28;20037;-78
2022/05/10 05:44:55;;;;;;;7.93;3.40;;;;;;;;;;5023683;28;20056;-80
2022/05/10 05:47:20;;;;;;;10.60;3.30;;;;;;;;;;5024460;28;20064;-80
2022/05/10 05:49:46;;;;;;;6.10;3.50;;;;;;;;;;5025822;28;20286;-79
2022/05/10 05:52:11;;;;;;;6.20;3.25;;;;;;;;;;5025070;28;20341;-79
2022/05/10 05:54:37;;;;;;;13.07;3.20;;;;;;;;;;5023054;28;20042;-78
2022/05/10 05:57:05;;;;;;;7.68;3.13;;;;;;;;;;5024031;28;20018;-79
2022/05/10 05:59:31;;;;;;;8.35;3.33;;;;;;;;;;5025123;28;20025;-78
2022/05/10 06:01:57;;;;;;;8.40;3.40;;;;;;;;;;5023301;28;20032;-79
2022/05/10 06:04:23;;;;;;;9.18;3.53;;;;;;;;;;5027318;28;20041;-78
2022/05/10 06:06:48;;;;;;;10.60;3.35;;;;;;;;;;5026008;28;20025;-78
2022/05/10 06:09:13;;;;;;;9.52;3.75;;;;;;;;;;5027760;28;20026;-79
2022/05/10 06:11:39;;;;;;;11.55;3.13;;;;;;;;;;5028952;28;20033;-78
2022/05/10 06:14:05;;;;;;;9.20;3.67;;;;;;;;;;5027165;28;20029;-79
2022/05/10 06:16:30;;;;;;;5.75;3.50;;;;;;;;;;5026407;28;20026;-78
2022/05/10 06:18:55;;;;;;;6.82;3.30;;;;;;;;;;5027039;28;20033;-78
2022/05/10 06:21:21;;;;;;;8.68;3.58;;;;;;;;;;5024717;28;20521;-78
2022/05/10 06:23:46;;;;;;;9.35;3.50;;;;;;;;;;5026478;28;20025;-79
2022/05/10 06:26:11;;;;;;;7.82;3.70;;;;;;;;;;5027160;28;20022;-80
2022/05/10 06:28:37;;;;;;;11.40;3.67;;;;;;;;;;5027062;28;20026;-79
2022/05/10 06:31:06;;;;;;;10.60;3.83;;;;;;;;;;5026147;28;20256;-80
2022/05/10 06:33:31;;;;;;;7.35;3.30;;;;;;;;;;5025459;28;20117;-77
2022/05/10 06:35:57;;;;;;;9.02;3.25;;;;;;;;;;5024061;28;20488;-78
2022/05/10 06:38:27;;;;;;;8.85;3.38;;;;;;;;;;5022859;28;20025;-78
2022/05/10 06:40:53;;;;;;;6.97;3.25;;;;;;;;;;5023678;28;20022;-78
2022/05/10 06:43:19;;;;;;;7.22;3.45;;;;;;;;;;5025489;28;20034;-79
2022/05/10 06:45:44;;;;;;;7.70;3.42;;;;;;;;;;5024221;28;20085;-79
2022/05/10 06:48:10;;;;;;;6.70;3.22;;;;;;;;;;5025499;28;20108;-78
2022/05/10 06:50:37;;;;;;;9.07;3.33;;;;;;;;;;5025349;28;20033;-78
2022/05/10 06:53:03;;;;;;;5.85;2.55;;;;;;;;;;5025414;28;20030;-78
2022/05/10 06:55:30;;;;;;;8.88;4.10;;;;;;;;;;5025754;28;20044;-78
2022/05/10 06:57:56;;;;;;;11.45;3.05;;;;;;;;;;5026061;28;20029;-78
2022/05/10 07:00:22;;;;;;;6.80;2.80;;;;;;;;;;5026085;28;20026;-78
2022/05/10 07:02:47;;;;;;;7.53;3.08;;;;;;;;;;5022330;28;20030;-78
2022/05/10 07:05:15;;;;;;;10.32;3.53;;;;;;;;;;5024597;28;20057;-79
2022/05/10 07:07:41;;;;;;;7.15;3.25;;;;;;;;;;5024023;28;20068;-78
2022/05/10 07:10:10;;;;;;;9.95;2.90;;;;;;;;;;5026649;28;20030;-79
2022/05/10 07:12:39;;;;;;;8.32;2.85;;;;;;;;;;5024144;28;20113;-79
2022/05/10 07:15:07;;;;;;;7.88;2.85;;;;;;;;;;5025604;28;20026;-79
2022/05/10 07:17:32;;;;;;;6.78;2.72;;;;;;;;;;5026455;28;20041;-79
2022/05/10 07:19:57;;;;;;;5.77;2.83;;;;;;;;;;5026132;28;20029;-79
2022/05/10 07:22:22;;;;;;;7.07;3.00;;;;;;;;;;5024936;28;20268;-79
2022/05/10 07:24:48;;;;;;;6.60;3.05;;;;;;;;;;5025989;28;20799;-78
2022/05/10 07:27:13;;;;;;;7.10;3.00;;;;;;;;;;5024253;28;20029;-79
2022/05/10 07:29:38;;;;;;;8.17;2.80;;;;;;;;;;5024569;28;20262;-78
2022/05/10 07:32:04;;;;;;;6.43;2.92;;;;;;;;;;5025436;28;20302;-80
2022/05/10 07:34:29;;;;;;;5.80;2.97;;;;;;;;;;5021651;28;20495;-78
2022/05/10 07:36:54;;;;;;;7.03;3.28;;;;;;;;;;5021699;28;20463;-80
2022/05/10 07:39:21;;;;;;;13.02;2.80;;;;;;;;;;5022057;28;20026;-79
2022/05/10 07:41:48;;;;;;;4.78;3.03;;;;;;;;;;5020921;28;20024;-78
2022/05/10 07:44:13;;;;;;;5.28;2.47;;;;;;;;;;5022522;28;20104;-80
2022/05/10 07:46:39;;;;;;;6.82;2.67;;;;;;;;;;5023026;28;20037;-79
2022/05/10 07:49:04;;;;;;;6.35;2.78;;;;;;;;;;5024688;28;20551;-79
2022/05/10 07:51:30;;;;;;;8.00;3.23;;;;;;;;;;5023598;28;20419;-80
2022/05/10 07:53:55;;;;;;;4.15;2.80;;;;;;;;;;5023862;28;20263;-79
2022/05/10 07:56:20;;;;;;;5.85;2.72;;;;;;;;;;5023783;28;20037;-79
2022/05/10 07:58:45;;;;;;;6.57;2.90;;;;;;;;;;5022856;28;20022;-79
2022/05/10 08:01:11;;;;;;;10.05;3.05;;;;;;;;;;5023914;28;20087;-78
2022/05/10 08:03:36;;;;;;;7.05;2.95;;;;;;;;;;5022887;28;20017;-79
2022/05/10 08:06:02;;;;;;;7.32;3.03;;;;;;;;;;5024495;28;20041;-79
2022/05/10 08:08:36;;;;;;;6.22;3.00;;;;;;;;;;5022480;28;20021;-78
2022/05/10 08:11:03;;;;;;;6.55;2.90;;;;;;;;;;5022234;28;20104;-80
2022/05/10 08:13:31;;;;;;;8.73;2.95;;;;;;;;;;5022175;28;20045;-78
2022/05/10 08:15:56;;;;;;;4.28;2.65;;;;;;;;;;5020726;28;20116;-79
2022/05/10 08:18:23;;;;;;;6.28;2.78;;;;;;;;;;5022231;28;20053;-79
2022/05/10 08:20:50;;;;;;;4.85;3.20;;;;;;;;;;5022556;28;20036;-78
2022/05/10 08:23:22;;;;;;;5.93;2.97;;;;;;;;;;5023939;28;20052;-78
2022/05/10 08:25:49;;;;;;;7.63;3.17;;;;;;;;;;5023342;28;20063;-79
2022/05/10 08:28:14;;;;;;;5.45;2.85;;;;;;;;;;5022346;28;20033;-79
2022/05/10 08:30:41;;;;;;;7.35;2.67;;;;;;;;;;5024389;28;20030;-79
2022/05/10 08:33:06;;;;;;;4.90;2.92;;;;;;;;;;5022279;28;20372;-79
2022/05/10 08:35:32;;;;;;;4.43;2.60;;;;;;;;;;5021206;28;20056;-79
2022/05/10 08:37:57;;;;;;;7.10;3.15;;;;;;;;;;5021806;28;20038;-78
2022/05/10 08:40:32;;;;;;;6.63;3.23;;;;;;;;;;5014841;28;20034;-78
2022/05/10 08:43:06;;;;;;;5.95;3.03;;;;;;;;;;5014476;28;20602;-76
2022/05/10 08:45:40;;;;;;;9.15;3.00;;;;;;;;;;5015115;28;20022;-80
2022/05/10 08:48:06;;;;;;;7.95;2.60;;;;;;;;;;5013273;28;20026;-78
2022/05/10 08:50:31;;;;;;;4.72;2.88;;;;;;;;;;5014088;28;20034;-77
2022/05/10 08:52:56;;;;;;;9.57;3.25;;;;;;;;;;5017816;28;20048;-79
2022/05/10 08:55:30;;;;;;;8.73;2.85;;;;;;;;;;5025290;28;20028;-79
2022/05/10 08:58:30;;;;;;;8.60;3.13;;;;;;;;;;5026598;28;20029;-79
2022/05/10 09:01:00;;;;;;;6.55;3.40;;;;;;;;;;5022857;28;20026;-79
2022/05/10 09:03:35;;;;;;;5.60;3.13;;;;;;;;;;5022101;28;20432;-78
2022/05/10 09:06:15;;;;;;;7.63;3.08;;;;;;;;;;5021601;28;20437;-79
2022/05/10 09:08:51;;;;;;;3.90;2.67;;;;;;;;;;5022104;28;20022;-80
2022/05/10 09:11:18;;;;;;;7.22;3.50;;;;;;;;;;5022822;28;20100;-80
2022/05/10 09:13:45;;;;;;;4.15;3.08;;;;;;;;;;5024445;28;20032;-79
2022/05/10 09:16:12;;;;;;;6.93;3.45;;;;;;;;;;5022734;28;20032;-79
2022/05/10 09:18:50;;;;;;;8.20;3.20;;;;;;;;;;5024200;28;20022;-80
2022/05/10 09:21:26;;;;;;;7.28;3.30;;;;;;;;;;5024868;28;20061;-80
2022/05/10 09:24:01;;;;;;;7.68;3.17;;;;;;;;;;5024366;28;20053;-79
2022/05/10 09:26:39;;;;;;;11.80;3.40;;;;;;;;;;5021406;28;20048;-80
2022/05/10 09:29:10;;;;;;;6.45;3.30;;;;;;;;;;5022732;28;20022;-79
2022/05/10 09:37:13;;;;;;;8.07;3.10;;;;;;;;;;5024908;28;20110;-78
2022/05/10 09:40:08;;;;;;;5.97;2.97;;;;;;;;;;5026210;28;20025;-80
2022/05/10 09:42:38;;;;;;;6.57;3.15;;;;;;;;;;5013939;28;20042;-80
2022/05/10 09:45:18;;;;;;;6.45;3.20;;;;;;;;;;5024280;28;20076;-80
2022/05/10 09:48:07;;;;;;;5.82;2.95;;;;;;;;;;5022251;28;20106;-79
2022/05/10 09:50:40;;;;;;;4.93;3.25;;;;;;;;;;5014264;28;20048;-78
2022/05/10 09:53:07;;;;;;;;;;;;;;;;;;5025605;28;20073;-79
2022/05/10 09:55:33;;;;;;;5.72;3.22;;;;;;;;;;5027090;28;20356;-77
2022/05/10 09:58:11;;;;;;;8.05;3.33;;;;;;;;;;5026440;28;20050;-79
2022/05/10 10:00:44;;;;;;;4.22;3.17;;;;;;;;;;5026049;28;20026;-79
2022/05/10 10:03:28;;;;;;;9.25;3.60;;;;;;;;;;5025262;28;20049;-80
2022/05/10 10:05:56;;;;;;;;;;;;;;;;;;5025997;28;20467;-80
2022/05/10 10:08:39;;;;;;;16.08;3.60;;;;;;;;;;5023626;28;19920;-80
2022/05/10 10:11:26;;;;;;;6.88;3.65;;;;;;;;;;5022343;28;20030;-79
2022/05/10 10:13:53;;;;;;;7.55;3.40;;;;;;;;;;5024774;28;20033;-79
2022/05/10 10:16:24;;;;;;;6.95;3.25;;;;;;;;;;5024975;28;20106;-79
2022/05/10 10:18:53;;;;;;;7.13;3.25;;;;;;;;;;5026745;28;20030;-78
2022/05/10 10:21:34;;;;;;;7.50;2.78;;;;;;;;;;5024394;28;20029;-80
2022/05/10 10:24:01;;;;;;;6.57;3.00;;;;;;;;;;5025012;28;20018;-78
2022/05/10 10:26:38;;;;;;;8.00;3.35;;;;;;;;;;5027668;28;20471;-78
2022/05/10 10:29:16;;;;;;;6.40;2.80;;;;;;;;;;5028385;28;20057;-80
2022/05/10 10:31:46;;;;;;;18.02;3.22;;;;;;;;;;5026862;28;20034;-80
2022/05/10 10:34:19;;;;;;;8.93;3.00;;;;;;;;;;5027463;28;20423;-79
2022/05/10 10:37:00;;;;;;;7.10;3.20;;;;;;;;;;5025860;28;20030;-81
2022/05/10 10:39:35;;;;;;;6.65;3.03;;;;;;;;;;5026348;28;20543;-80
2022/05/10 10:42:08;;;;;;;4.90;2.60;;;;;;;;;;5026081;28;20030;-80
2022/05/10 10:44:39;;;;;;;6.43;2.80;;;;;;;;;;5026016;28;20018;-79
2022/05/10 10:47:08;;;;;;;4.80;3.05;;;;;;;;;;5024397;28;20030;-79
2022/05/10 10:49:45;;;;;;;5.80;3.28;;;;;;;;;;5024769;28;20032;-80
2022/05/10 10:52:12;;;;;;;9.38;3.20;;;;;;;;;;5025157;28;20052;-79
2022/05/10 10:54:38;;;;;;;7.80;3.30;;;;;;;;;;5023507;28;20026;-80
2022/05/10 10:57:27;;;;;;;5.75;3.15;;;;;;;;;;5024882;28;20104;-78
2022/05/10 11:00:01;;;;;;;7.75;3.15;;;;;;;;;;5026537;28;20021;-79
2022/05/10 11:02:46;;;;;;;5.93;3.20;;;;;;;;;;5023986;28;20057;-79
2022/05/10 11:05:50;;;;;;;3.60;2.78;;;;;;;;;;5023851;28;20044;-79
2022/05/10 11:08:30;;;;;;;5.57;2.92;;;;;;;;;;5022997;28;20029;-79
2022/05/10 11:11:11;;;;;;;6.97;2.92;;;;;;;;;;5023776;28;20093;-79
2022/05/10 11:13:51;;;;;;;6.00;2.90;;;;;;;;;;5025465;28;20029;-79
2022/05/10 11:16:38;;;;;;;7.80;3.00;;;;;;;;;;5026141;28;20033;-78
2022/05/10 11:19:35;;;;;;;5.75;3.08;;;;;;;;;;5025496;28;20021;-78
2022/05/10 11:22:34;;;;;;;5.68;3.20;;;;;;;;;;5025443;28;20030;-80
2022/05/10 11:25:21;;;;;;;7.10;2.65;;;;;;;;;;5023154;28;20396;-80
2022/05/10 11:28:29;;;;;;;4.13;2.50;;;;;;;;;;5021615;28;20109;-79
2022/05/10 11:31:35;;;;;;;5.00;2.70;;;;;;;;;;5022649;28;20034;-79
2022/05/10 11:34:20;;;;;;;5.95;2.70;;;;;;;;;;5023570;28;20029;-80
2022/05/10 11:36:48;;;;;;;7.07;2.80;;;;;;;;;;5022955;28;20443;-79
2022/05/10 11:39:28;;;;;;;3.97;2.63;;;;;;;;;;5024065;28;20093;-79
2022/05/10 11:42:34;;;;;;;5.07;2.22;;;;;;;;;;5024469;28;20018;-79
2022/05/10 11:45:37;;;;;;;6.85;2.60;;;;;;;;;;5025243;28;20033;-80
2022/05/10 11:48:17;;;;;;;6.50;2.80;;;;;;;;;;5022571;28;20121;-80
2022/05/10 11:54:16;;;;;;;3.38;2.13;;;;;;;;;;5024184;28;20041;-80
2022/05/10 11:56:44;;;;;;;4.97;2.35;;;;;;;;;;5023377;28;20475;-79
2022/05/10 11:59:20;;;;;;;3.72;2.30;;;;;;;;;;5022759;28;20038;-81
2022/05/10 12:01:51;;;;;;;6.85;2.50;;;;;;;;;;5021691;28;20436;-81
2022/05/10 12:04:35;;;;;;;4.47;2.35;;;;;;;;;;5022674;28;20022;-80
2022/05/10 12:07:34;;;;;;;4.78;2.60;;;;;;;;;;5022505;28;20379;-78
2022/05/10 12:10:03;;;;;;;3.22;2.47;;;;;;;;;;4991702;28;20061;-80
2022/05/10 12:12:31;;;;;;;5.15;2.28;;;;;;;;;;5025136;28;20113;-81
2022/05/10 12:24:07;;;;;;;5.55;2.25;;;;;;;;;;5023917;28;20216;-80
2022/05/10 12:26:46;;;;;;;6.45;2.25;;;;;;;;;;5021184;28;20033;-81
2022/05/10 12:29:41;;;;;;;4.03;2.30;;;;;;;;;;5022470;28;20025;-79
2022/05/10 12:32:21;;;;;;;5.13;2.30;;;;;;;;;;5004623;28;20029;-81
2022/05/10 12:34:52;;;;;;;4.95;2.35;;;;;;;;;;5023291;28;20026;-78
2022/05/10 12:37:30;;;;;;;3.47;2.47;;;;;;;;;;5023079;28;20030;-81
2022/05/10 12:40:08;;;;;;;5.40;2.58;;;;;;;;;;5021148;28;20022;-79
2022/05/10 12:42:48;;;;;;;4.22;2.60;;;;;;;;;;5020901;28;20025;-79
2022/05/10 12:45:22;;;;;;;4.75;2.30;;;;;;;;;;5022285;28;20029;-80
2022/05/10 12:48:08;;;;;;;6.55;2.45;;;;;;;;;;5022622;28;20090;-80
2022/05/10 12:51:00;;;;;;;5.03;2.40;;;;;;;;;;5020811;28;20078;-80
2022/05/10 12:53:46;;;;;;;10.18;2.33;;;;;;;;;;4997782;28;20479;-80
2022/05/10 12:56:11;;;;;;;6.35;2.70;;;;;;;;;;5020791;28;20041;-80
2022/05/10 12:58:43;;;;;;;5.10;2.67;;;;;;;;;;5023021;28;20026;-80
2022/05/10 13:01:13;;;;;;;3.70;2.25;;;;;;;;;;5023650;28;20030;-79
2022/05/10 13:03:47;;;;;;;3.47;2.63;;;;;;;;;;5024708;28;20026;-80
2022/05/10 13:06:34;;;;;;;2.92;2.40;;;;;;;;;;5024050;28;20029;-80
2022/05/10 13:09:17;;;;;;;2.45;2.10;;;;;;;;;;5022480;28;20033;-79
2022/05/10 13:11:47;;;;;;;6.30;2.55;;;;;;;;;;5025244;28;20032;-79
2022/05/10 13:14:14;;;;;;;5.78;2.30;;;;;;;;;;5026732;28;20021;-79
2022/05/10 13:16:45;;;;;;;5.60;2.42;;;;;;;;;;5025231;28;20313;-80
2022/05/10 13:19:10;;;;;;;2.90;2.10;;;;;;;;;;5028354;28;20033;-80
2022/05/10 13:21:36;;;;;;;4.85;2.40;;;;;;;;;;5028688;28;20022;-81
2022/05/10 13:24:09;;;;;;;4.32;2.50;;;;;;;;;;5027402;28;20057;-81
2022/05/10 13:26:35;;;;;;;;;;;;;;;;;;5027121;28;20021;-81
2022/05/10 13:29:01;;;;;;;4.77;2.27;;;;;;;;;;5028573;28;19945;-81
2022/05/10 13:31:34;;;;;;;4.03;2.47;;;;;;;;;;5027559;28;20023;-80
2022/05/10 13:34:10;;;;;;;3.67;2.60;;;;;;;;;;5026308;28;20022;-80
2022/05/10 13:36:37;;;;;;;8.88;2.70;;;;;;;;;;5023646;28;20117;-81
2022/05/10 13:39:03;;;;;;;4.90;2.90;;;;;;;;;;5024663;28;20057;-80
2022/05/10 13:41:36;;;;;;;5.22;2.92;;;;;;;;;;5025114;28;20022;-80
2022/05/10 13:44:10;;;;;;;5.03;2.80;;;;;;;;;;5024225;28;20057;-80
2022/05/10 13:47:02;;;;;;;9.18;3.20;;;;;;;;;;5025175;28;20029;-79
2022/05/10 13:49:34;;;;;;;5.63;3.30;;;;;;;;;;5026208;28;20018;-79
2022/05/10 13:52:03;;;;;;;4.95;3.08;;;;;;;;;;5026333;28;20033;-80
2022/05/10 13:54:55;;;;;;;7.85;2.90;;;;;;;;;;5026512;28;20025;-80
2022/05/10 13:57:25;;;;;;;4.60;2.58;;;;;;;;;;5026909;28;20037;-81
2022/05/10 13:59:51;;;;;;;9.90;2.80;;;;;;;;;;5026096;28;20021;-80
2022/05/10 14:02:16;;;;;;;5.32;2.40;;;;;;;;;;5027355;28;20046;-81
2022/05/10 14:04:47;;;;;;;6.32;2.85;;;;;;;;;;5025496;28;20049;-79
2022/05/10 14:07:17;;;;;;;6.55;2.78;;;;;;;;;;5026917;28;20064;-80
2022/05/10 14:09:45;;;;;;;5.78;2.83;;;;;;;;;;5026486;28;20025;-80
2022/05/10 14:12:23;;;;;;;3.58;2.50;;;;;;;;;;5026975;28;20025;-79
2022/05/10 14:14:50;;;;;;;3.65;2.55;;;;;;;;;;5026510;28;20022;-80
2022/05/10 14:17:16;;;;;;;5.78;3.05;;;;;;;;;;5025244;28;20030;-79
2022/05/10 14:19:45;;;;;;;7.85;3.17;;;;;;;;;;5026274;28;20056;-79
2022/05/10 14:22:18;;;;;;;4.88;3.00;;;;;;;;;;5023123;28;20022;-79
2022/05/10 14:24:45;;;;;;;4.40;2.90;;;;;;;;;;5026823;28;20549;-81
2022/05/10 14:27:21;;;;;;;8.88;2.70;;;;;;;;;;5027783;28;20025;-80
2022/05/10 14:29:49;;;;;;;6.70;2.95;;;;;;;;;;5025328;28;20033;-79
2022/05/10 14:32:30;;;;;;;6.28;2.83;;;;;;;;;;5027032;28;20030;-79
2022/05/10 14:35:05;;;;;;;6.88;2.80;;;;;;;;;;5025997;28;20033;-80
2022/05/10 14:37:36;;;;;;;6.18;3.10;;;;;;;;;;5023765;28;20034;-80
2022/05/10 14:40:26;;;;;;;6.30;2.90;;;;;;;;;;5025890;28;20037;-81
2022/05/10 14:42:57;;;;;;;6.53;3.65;;;;;;;;;;5025771;28;20065;-80
2022/05/10 14:45:25;;;;;;;8.77;2.80;;;;;;;;;;5026069;28;20456;-78
2022/05/10 14:47:51;;;;;;;6.60;3.10;;;;;;;;;;5024766;28;20025;-81
2022/05/10 14:50:43;;;;;;;7.53;2.95;;;;;;;;;;5024529;28;20029;-79
2022/05/10 14:53:20;;;;;;;7.05;2.88;;;;;;;;;;5026478;28;20117;-80
2022/05/10 14:55:50;;;;;;;5.75;3.15;;;;;;;;;;5026385;28;20032;-80
2022/05/10 14:58:30;;;;;;;7.93;3.17;;;;;;;;;;5025832;28;20022;-80
2022/05/10 15:01:19;;;;;;;6.57;2.80;;;;;;;;;;5023445;28;20491;-80
2022/05/10 15:04:06;;;;;;;10.85;3.40;;;;;;;;;;5021503;28;20018;-79
2022/05/10 15:06:33;;;;;;;7.32;3.10;;;;;;;;;;5025816;28;20042;-81
2022/05/10 15:08:58;;;;;;;5.78;3.28;;;;;;;;;;5027968;28;20077;-81
2022/05/10 15:11:24;;;;;;;6.53;3.22;;;;;;;;;;5024167;28;20045;-82
2022/05/10 15:13:49;;;;;;;15.88;3.60;;;;;;;;;;5027883;28;20073;-81
2022/05/10 15:16:14;;;;;;;7.37;3.27;;;;;;;;;;5032540;28;20026;-80
2022/05/10 15:18:58;;;;;;;9.03;3.00;;;;;;;;;;5032455;28;20251;-79
2022/05/10 15:21:29;;;;;;;5.05;2.80;;;;;;;;;;5030336;28;20298;-80
2022/05/10 15:23:55;;;;;;;5.60;3.10;;;;;;;;;;5032763;28;20037;-79
2022/05/10 15:26:24;;;;;;;4.15;2.95;;;;;;;;;;5029058;28;20026;-80
2022/05/10 15:28:51;;;;;;;4.35;3.28;;;;;;;;;;5031018;28;20026;-80
2022/05/10 15:31:18;;;;;;;4.38;2.70;;;;;;;;;;5031785;28;20494;-79